sensor_id;sensor_type;location;lat;lon;timestamp;temperature;humidity
19868;DHT22;10096;51.112;6.776;2024-03-06T00:00:12;7.90;1.00
19868;DHT22;10096;51.112;6.776;2024-03-06T00:02:58;8.00;1.00
19868;DHT22;10096;51.112;6.776;2024-03-06T00:05:29;8.20;1.00
19868;DHT22;10096;51.112;6.776;2024-03-06T00:08:20;7.80;1.00
19868;DHT22;10096;51.112;6.776;2024-03-06T00:11:10;7.90;1.00
19868;DHT22;10096;51.112;6.776;2024-03-06T00:13:42;8.30;1.00
19868;DHT22;10096;51.112;6.776;2024-03-06T00:16:21;8.20;1.00
19868;DHT22;10096;51.112;6.776;2024-03-06T00:18:55;8.40;1.00
19868;DHT22;10096;51.112;6.776;2024-03-06T00:21:32;8.10;1.00
19868;DHT22;10096;51.112;6.776;2024-03-06T00:24:02;8.10;1.00
19868;DHT22;10096;51.112;6.776;2024-03-06T00:26:33;8.20;1.00
19868;DHT22;10096;51.112;6.776;2024-03-06T00:29:01;8.10;1.00
19868;DHT22;10096;51.112;6.776;2024-03-06T00:31:34;8.10;1.00
19868;DHT22;10096;51.112;6.776;2024-03-06T00:34:11;8.00;1.00
19868;DHT22;10096;51.112;6.776;2024-03-06T00:36:44;8.00;1.00
19868;DHT22;10096;51.112;6.776;2024-03-06T00:39:23;7.90;1.00
19868;DHT22;10096;51.112;6.776;2024-03-06T00:42:15;7.80;1.00
19868;DHT22;10096;51.112;6.776;2024-03-06T00:45:02;7.80;1.00
19868;DHT22;10096;51.112;6.776;2024-03-06T00:47:49;7.90;1.00
19868;DHT22;10096;51.112;6.776;2024-03-06T00:50:46;7.30;1.00
19868;DHT22;10096;51.112;6.776;2024-03-06T00:53:21;7.80;30.40
19868;DHT22;10096;51.112;6.776;2024-03-06T00:56:09;7.60;51.70
19868;DHT22;10096;51.112;6.776;2024-03-06T00:58:51;7.70;5.60
19868;DHT22;10096;51.112;6.776;2024-03-06T01:01:32;7.50;47.30
19868;DHT22;10096;51.112;6.776;2024-03-06T01:04:11;7.60;99.90
19868;DHT22;10096;51.112;6.776;2024-03-06T01:06:42;7.50;99.90
19868;DHT22;10096;51.112;6.776;2024-03-06T01:09:22;7.90;99.90
19868;DHT22;10096;51.112;6.776;2024-03-06T01:12:11;7.70;99.90
19868;DHT22;10096;51.112;6.776;2024-03-06T01:15:28;7.70;99.90
19868;DHT22;10096;51.112;6.776;2024-03-06T01:18:25;7.80;99.90
19868;DHT22;10096;51.112;6.776;2024-03-06T01:21:55;7.70;99.90
19868;DHT22;10096;51.112;6.776;2024-03-06T01:24:44;7.50;99.90
19868;DHT22;10096;51.112;6.776;2024-03-06T01:27:34;7.70;99.90
19868;DHT22;10096;51.112;6.776;2024-03-06T01:30:34;7.60;99.90
19868;DHT22;10096;51.112;6.776;2024-03-06T01:33:21;7.60;99.90
19868;DHT22;10096;51.112;6.776;2024-03-06T01:36:07;7.60;99.90
19868;DHT22;10096;51.112;6.776;2024-03-06T01:38:42;7.20;99.90
19868;DHT22;10096;51.112;6.776;2024-03-06T01:41:23;7.60;99.90
19868;DHT22;10096;51.112;6.776;2024-03-06T01:44:09;7.30;99.90
19868;DHT22;10096;51.112;6.776;2024-03-06T01:47:02;7.60;99.90
19868;DHT22;10096;51.112;6.776;2024-03-06T01:49:53;7.60;99.90
19868;DHT22;10096;51.112;6.776;2024-03-06T01:52:36;7.70;99.90
19868;DHT22;10096;51.112;6.776;2024-03-06T01:55:16;7.70;99.90
19868;DHT22;10096;51.112;6.776;2024-03-06T01:58:12;7.80;99.90
19868;DHT22;10096;51.112;6.776;2024-03-06T02:00:49;7.90;99.90
19868;DHT22;10096;51.112;6.776;2024-03-06T02:03:19;7.80;95.10
19868;DHT22;10096;51.112;6.776;2024-03-06T02:05:51;8.00;62.20
19868;DHT22;10096;51.112;6.776;2024-03-06T02:08:22;8.00;76.00
19868;DHT22;10096;51.112;6.776;2024-03-06T02:10:51;8.00;50.70
19868;DHT22;10096;51.112;6.776;2024-03-06T02:13:36;8.00;1.00
19868;DHT22;10096;51.112;6.776;2024-03-06T02:16:24;7.80;1.00
19868;DHT22;10096;51.112;6.776;2024-03-06T02:22:35;7.50;1.00
19868;DHT22;10096;51.112;6.776;2024-03-06T02:25:05;7.70;1.00
19868;DHT22;10096;51.112;6.776;2024-03-06T02:27:40;7.70;1.00
19868;DHT22;10096;51.112;6.776;2024-03-06T02:30:22;7.80;1.00
19868;DHT22;10096;51.112;6.776;2024-03-06T02:32:57;8.00;1.00
19868;DHT22;10096;51.112;6.776;2024-03-06T02:35:31;7.80;1.00
19868;DHT22;10096;51.112;6.776;2024-03-06T02:38:10;7.80;1.00
19868;DHT22;10096;51.112;6.776;2024-03-06T02:40:43;7.80;1.00
19868;DHT22;10096;51.112;6.776;2024-03-06T02:43:12;7.80;1.00
19868;DHT22;10096;51.112;6.776;2024-03-06T02:45:50;7.80;1.00
19868;DHT22;10096;51.112;6.776;2024-03-06T02:48:21;7.80;1.00
19868;DHT22;10096;51.112;6.776;2024-03-06T02:50:53;7.70;1.00
19868;DHT22;10096;51.112;6.776;2024-03-06T02:53:27;7.80;1.00
19868;DHT22;10096;51.112;6.776;2024-03-06T02:56:01;7.80;1.00
19868;DHT22;10096;51.112;6.776;2024-03-06T02:58:34;7.80;1.00
19868;DHT22;10096;51.112;6.776;2024-03-06T03:01:13;7.70;1.00
19868;DHT22;10096;51.112;6.776;2024-03-06T03:03:43;7.70;1.00
19868;DHT22;10096;51.112;6.776;2024-03-06T03:06:16;7.70;1.00
19868;DHT22;10096;51.112;6.776;2024-03-06T03:08:46;7.60;1.00
19868;DHT22;10096;51.112;6.776;2024-03-06T03:11:30;7.60;1.00
19868;DHT22;10096;51.112;6.776;2024-03-06T03:14:01;7.80;1.00
19868;DHT22;10096;51.112;6.776;2024-03-06T03:16:38;7.50;1.00
19868;DHT22;10096;51.112;6.776;2024-03-06T03:19:05;7.40;1.00
19868;DHT22;10096;51.112;6.776;2024-03-06T03:21:36;7.30;1.00
19868;DHT22;10096;51.112;6.776;2024-03-06T03:24:12;7.10;1.00
19868;DHT22;10096;51.112;6.776;2024-03-06T03:26:41;7.30;1.00
19868;DHT22;10096;51.112;6.776;2024-03-06T03:29:11;7.40;1.00
19868;DHT22;10096;51.112;6.776;2024-03-06T03:31:44;6.80;1.00
19868;DHT22;10096;51.112;6.776;2024-03-06T03:34:22;7.00;1.00
19868;DHT22;10096;51.112;6.776;2024-03-06T03:36:58;7.10;1.00
19868;DHT22;10096;51.112;6.776;2024-03-06T03:39:33;7.10;1.00
19868;DHT22;10096;51.112;6.776;2024-03-06T03:42:14;7.00;1.00
19868;DHT22;10096;51.112;6.776;2024-03-06T03:44:42;6.90;1.00
19868;DHT22;10096;51.112;6.776;2024-03-06T03:47:11;7.10;1.00
19868;DHT22;10096;51.112;6.776;2024-03-06T03:49:38;6.80;1.00
19868;DHT22;10096;51.112;6.776;2024-03-06T03:52:09;6.80;1.00
19868;DHT22;10096;51.112;6.776;2024-03-06T03:54:44;7.00;1.00
19868;DHT22;10096;51.112;6.776;2024-03-06T03:57:17;6.50;1.00
19868;DHT22;10096;51.112;6.776;2024-03-06T03:59:51;6.70;7.30
19868;DHT22;10096;51.112;6.776;2024-03-06T04:02:19;6.80;25.40
19868;DHT22;10096;51.112;6.776;2024-03-06T04:04:52;7.10;29.30
19868;DHT22;10096;51.112;6.776;2024-03-06T04:07:23;7.00;83.80
19868;DHT22;10096;51.112;6.776;2024-03-06T04:10:09;7.10;82.10
19868;DHT22;10096;51.112;6.776;2024-03-06T04:12:43;7.00;92.40
19868;DHT22;10096;51.112;6.776;2024-03-06T04:15:25;7.00;99.90
19868;DHT22;10096;51.112;6.776;2024-03-06T04:18:01;6.70;57.20
19868;DHT22;10096;51.112;6.776;2024-03-06T04:20:36;7.20;1.00
19868;DHT22;10096;51.112;6.776;2024-03-06T04:23:05;6.90;1.00
19868;DHT22;10096;51.112;6.776;2024-03-06T04:25:34;7.00;1.00
19868;DHT22;10096;51.112;6.776;2024-03-06T04:28:11;6.90;1.00
19868;DHT22;10096;51.112;6.776;2024-03-06T04:30:41;6.90;6.70
19868;DHT22;10096;51.112;6.776;2024-03-06T04:33:08;6.90;99.90
19868;DHT22;10096;51.112;6.776;2024-03-06T04:35:49;7.10;99.90
19868;DHT22;10096;51.112;6.776;2024-03-06T04:38:29;7.00;99.90
19868;DHT22;10096;51.112;6.776;2024-03-06T04:41:05;7.10;21.00
19868;DHT22;10096;51.112;6.776;2024-03-06T04:43:34;7.10;15.10
19868;DHT22;10096;51.112;6.776;2024-03-06T04:46:15;7.10;99.90
19868;DHT22;10096;51.112;6.776;2024-03-06T04:48:49;7.30;79.80
19868;DHT22;10096;51.112;6.776;2024-03-06T04:51:20;7.10;9.20
19868;DHT22;10096;51.112;6.776;2024-03-06T04:53:57;7.00;1.00
19868;DHT22;10096;51.112;6.776;2024-03-06T04:56:25;6.80;1.00
19868;DHT22;10096;51.112;6.776;2024-03-06T04:58:57;6.90;26.50
19868;DHT22;10096;51.112;6.776;2024-03-06T05:01:28;6.90;99.90
19868;DHT22;10096;51.112;6.776;2024-03-06T05:03:55;6.90;99.90
19868;DHT22;10096;51.112;6.776;2024-03-06T05:06:24;7.10;99.90
19868;DHT22;10096;51.112;6.776;2024-03-06T05:09:05;7.20;99.90
19868;DHT22;10096;51.112;6.776;2024-03-06T05:11:38;7.40;99.90
19868;DHT22;10096;51.112;6.776;2024-03-06T05:14:05;7.10;99.90
19868;DHT22;10096;51.112;6.776;2024-03-06T05:16:41;7.30;99.90
19868;DHT22;10096;51.112;6.776;2024-03-06T05:19:26;7.20;99.90
19868;DHT22;10096;51.112;6.776;2024-03-06T05:22:02;7.20;99.90
19868;DHT22;10096;51.112;6.776;2024-03-06T05:24:37;7.20;99.90
19868;DHT22;10096;51.112;6.776;2024-03-06T05:27:09;7.10;99.90
19868;DHT22;10096;51.112;6.776;2024-03-06T05:29:38;7.10;99.90
19868;DHT22;10096;51.112;6.776;2024-03-06T05:32:23;7.20;99.90
19868;DHT22;10096;51.112;6.776;2024-03-06T05:35:08;7.00;99.90
19868;DHT22;10096;51.112;6.776;2024-03-06T05:37:46;6.90;99.90
19868;DHT22;10096;51.112;6.776;2024-03-06T05:40:28;6.80;99.90
19868;DHT22;10096;51.112;6.776;2024-03-06T05:42:58;6.50;99.90
19868;DHT22;10096;51.112;6.776;2024-03-06T05:45:27;6.40;1.00
19868;DHT22;10096;51.112;6.776;2024-03-06T05:48:10;6.40;1.00
19868;DHT22;10096;51.112;6.776;2024-03-06T05:50:41;6.30;99.90
19868;DHT22;10096;51.112;6.776;2024-03-06T05:53:17;6.40;1.00
19868;DHT22;10096;51.112;6.776;2024-03-06T05:56:02;6.60;1.00
19868;DHT22;10096;51.112;6.776;2024-03-06T05:58:33;6.20;99.90
19868;DHT22;10096;51.112;6.776;2024-03-06T06:01:01;6.10;1.00
19868;DHT22;10096;51.112;6.776;2024-03-06T06:03:47;6.00;98.20
19868;DHT22;10096;51.112;6.776;2024-03-06T06:06:20;6.20;1.00
19868;DHT22;10096;51.112;6.776;2024-03-06T06:09:02;6.00;1.00
19868;DHT22;10096;51.112;6.776;2024-03-06T06:11:41;6.00;1.00
19868;DHT22;10096;51.112;6.776;2024-03-06T06:14:42;6.00;99.90
19868;DHT22;10096;51.112;6.776;2024-03-06T06:17:11;6.00;1.00
19868;DHT22;10096;51.112;6.776;2024-03-06T06:19:41;5.80;99.90
19868;DHT22;10096;51.112;6.776;2024-03-06T06:22:09;5.90;99.90
19868;DHT22;10096;51.112;6.776;2024-03-06T06:24:42;6.10;1.00
19868;DHT22;10096;51.112;6.776;2024-03-06T06:27:23;6.00;99.90
19868;DHT22;10096;51.112;6.776;2024-03-06T06:29:55;6.40;1.00
19868;DHT22;10096;51.112;6.776;2024-03-06T06:32:23;6.20;99.90
19868;DHT22;10096;51.112;6.776;2024-03-06T06:34:57;6.10;1.00
19868;DHT22;10096;51.112;6.776;2024-03-06T06:37:29;6.60;1.00
19868;DHT22;10096;51.112;6.776;2024-03-06T06:40:05;6.80;1.00
19868;DHT22;10096;51.112;6.776;2024-03-06T06:42:34;6.90;99.90
19868;DHT22;10096;51.112;6.776;2024-03-06T06:45:06;7.00;99.90
19868;DHT22;10096;51.112;6.776;2024-03-06T06:47:35;6.90;1.00
19868;DHT22;10096;51.112;6.776;2024-03-06T06:50:11;6.70;1.00
19868;DHT22;10096;51.112;6.776;2024-03-06T06:52:43;6.60;1.00
19868;DHT22;10096;51.112;6.776;2024-03-06T06:55:16;6.50;1.00
19868;DHT22;10096;51.112;6.776;2024-03-06T06:57:51;6.70;1.00
19868;DHT22;10096;51.112;6.776;2024-03-06T07:00:47;6.40;99.90
19868;DHT22;10096;51.112;6.776;2024-03-06T07:03:30;6.70;99.90
19868;DHT22;10096;51.112;6.776;2024-03-06T07:06:12;6.60;99.90
19868;DHT22;10096;51.112;6.776;2024-03-06T07:08:42;6.40;99.90
19868;DHT22;10096;51.112;6.776;2024-03-06T07:11:11;6.70;99.90
19868;DHT22;10096;51.112;6.776;2024-03-06T07:13:41;6.90;99.90
19868;DHT22;10096;51.112;6.776;2024-03-06T07:16:09;7.00;99.90
19868;DHT22;10096;51.112;6.776;2024-03-06T07:18:42;7.10;99.90
19868;DHT22;10096;51.112;6.776;2024-03-06T07:21:09;7.30;99.90
19868;DHT22;10096;51.112;6.776;2024-03-06T07:23:36;7.30;99.90
19868;DHT22;10096;51.112;6.776;2024-03-06T07:26:03;7.40;99.90
19868;DHT22;10096;51.112;6.776;2024-03-06T07:28:35;7.80;99.90
19868;DHT22;10096;51.112;6.776;2024-03-06T07:31:05;8.10;1.00
19868;DHT22;10096;51.112;6.776;2024-03-06T07:33:35;8.30;1.00
19868;DHT22;10096;51.112;6.776;2024-03-06T07:36:04;8.80;1.00
19868;DHT22;10096;51.112;6.776;2024-03-06T07:38:30;8.90;1.00
19868;DHT22;10096;51.112;6.776;2024-03-06T07:41:06;8.90;99.90
19868;DHT22;10096;51.112;6.776;2024-03-06T07:43:53;9.10;99.90
19868;DHT22;10096;51.112;6.776;2024-03-06T07:46:49;9.20;67.70
19868;DHT22;10096;51.112;6.776;2024-03-06T07:49:42;9.10;19.50
19868;DHT22;10096;51.112;6.776;2024-03-06T07:52:16;9.70;1.00
19868;DHT22;10096;51.112;6.776;2024-03-06T07:54:53;10.50;1.00
19868;DHT22;10096;51.112;6.776;2024-03-06T07:57:21;11.00;99.90
19868;DHT22;10096;51.112;6.776;2024-03-06T08:00:05;11.30;99.90
19868;DHT22;10096;51.112;6.776;2024-03-06T08:06:00;11.50;99.90
19868;DHT22;10096;51.112;6.776;2024-03-06T08:08:40;11.10;99.90
19868;DHT22;10096;51.112;6.776;2024-03-06T08:11:24;10.40;99.90
19868;DHT22;10096;51.112;6.776;2024-03-06T08:14:00;9.90;99.90
19868;DHT22;10096;51.112;6.776;2024-03-06T08:16:31;9.70;99.90
19868;DHT22;10096;51.112;6.776;2024-03-06T08:19:05;9.60;99.90
19868;DHT22;10096;51.112;6.776;2024-03-06T08:21:55;9.90;99.90
19868;DHT22;10096;51.112;6.776;2024-03-06T08:24:22;9.40;99.90
19868;DHT22;10096;51.112;6.776;2024-03-06T08:26:53;9.80;99.90
19868;DHT22;10096;51.112;6.776;2024-03-06T08:29:23;9.50;99.90
19868;DHT22;10096;51.112;6.776;2024-03-06T08:31:55;9.50;99.90
19868;DHT22;10096;51.112;6.776;2024-03-06T08:34:27;9.40;99.90
19868;DHT22;10096;51.112;6.776;2024-03-06T08:36:56;9.50;1.00
19868;DHT22;10096;51.112;6.776;2024-03-06T08:39:26;9.70;99.90
19868;DHT22;10096;51.112;6.776;2024-03-06T08:41:53;9.80;1.00
19868;DHT22;10096;51.112;6.776;2024-03-06T08:44:20;10.00;99.90
19868;DHT22;10096;51.112;6.776;2024-03-06T08:46:54;10.30;99.90
19868;DHT22;10096;51.112;6.776;2024-03-06T08:49:27;10.20;99.90
19868;DHT22;10096;51.112;6.776;2024-03-06T08:51:56;10.20;99.90
19868;DHT22;10096;51.112;6.776;2024-03-06T08:54:24;10.20;99.90
19868;DHT22;10096;51.112;6.776;2024-03-06T08:56:51;10.20;99.90
19868;DHT22;10096;51.112;6.776;2024-03-06T08:59:23;10.40;99.90
19868;DHT22;10096;51.112;6.776;2024-03-06T09:01:53;10.40;99.90
19868;DHT22;10096;51.112;6.776;2024-03-06T09:04:29;10.40;99.90
19868;DHT22;10096;51.112;6.776;2024-03-06T09:07:06;10.30;99.90
19868;DHT22;10096;51.112;6.776;2024-03-06T09:09:33;10.30;99.90
19868;DHT22;10096;51.112;6.776;2024-03-06T09:12:00;10.60;99.90
19868;DHT22;10096;51.112;6.776;2024-03-06T09:14:27;10.70;99.90
19868;DHT22;10096;51.112;6.776;2024-03-06T09:16:54;10.60;99.90
19868;DHT22;10096;51.112;6.776;2024-03-06T09:19:21;10.70;99.90
19868;DHT22;10096;51.112;6.776;2024-03-06T09:21:48;10.80;99.90
19868;DHT22;10096;51.112;6.776;2024-03-06T09:24:20;11.10;99.90
19868;DHT22;10096;51.112;6.776;2024-03-06T09:26:50;11.10;99.90
19868;DHT22;10096;51.112;6.776;2024-03-06T09:29:18;11.20;99.90
19868;DHT22;10096;51.112;6.776;2024-03-06T09:31:45;11.20;99.90
19868;DHT22;10096;51.112;6.776;2024-03-06T09:34:13;11.20;99.90
19868;DHT22;10096;51.112;6.776;2024-03-06T09:36:47;11.00;99.90
19868;DHT22;10096;51.112;6.776;2024-03-06T09:39:14;10.90;99.90
19868;DHT22;10096;51.112;6.776;2024-03-06T09:41:44;10.80;99.90
19868;DHT22;10096;51.112;6.776;2024-03-06T09:44:20;10.60;99.90
19868;DHT22;10096;51.112;6.776;2024-03-06T09:46:49;10.50;99.90
19868;DHT22;10096;51.112;6.776;2024-03-06T09:49:18;10.50;99.90
19868;DHT22;10096;51.112;6.776;2024-03-06T09:51:57;10.60;99.90
19868;DHT22;10096;51.112;6.776;2024-03-06T09:54:31;10.90;99.90
19868;DHT22;10096;51.112;6.776;2024-03-06T09:57:08;11.30;99.90
19868;DHT22;10096;51.112;6.776;2024-03-06T09:59:35;11.20;99.90
19868;DHT22;10096;51.112;6.776;2024-03-06T10:02:28;11.50;99.90
19868;DHT22;10096;51.112;6.776;2024-03-06T10:05:23;11.50;99.90
19868;DHT22;10096;51.112;6.776;2024-03-06T10:07:51;11.70;99.90
19868;DHT22;10096;51.112;6.776;2024-03-06T10:10:19;11.50;99.90
19868;DHT22;10096;51.112;6.776;2024-03-06T10:12:54;11.70;99.90
19868;DHT22;10096;51.112;6.776;2024-03-06T10:15:23;11.60;99.90
19868;DHT22;10096;51.112;6.776;2024-03-06T10:18:09;11.70;99.90
19868;DHT22;10096;51.112;6.776;2024-03-06T10:20:38;11.90;99.90
19868;DHT22;10096;51.112;6.776;2024-03-06T10:23:05;12.00;99.90
19868;DHT22;10096;51.112;6.776;2024-03-06T10:25:33;11.50;99.90
19868;DHT22;10096;51.112;6.776;2024-03-06T10:28:22;11.90;99.90
19868;DHT22;10096;51.112;6.776;2024-03-06T10:30:50;11.70;99.90
19868;DHT22;10096;51.112;6.776;2024-03-06T10:33:20;11.90;99.90
19868;DHT22;10096;51.112;6.776;2024-03-06T10:35:47;11.80;99.90
19868;DHT22;10096;51.112;6.776;2024-03-06T10:38:21;11.50;99.90
19868;DHT22;10096;51.112;6.776;2024-03-06T10:41:05;11.60;99.90
19868;DHT22;10096;51.112;6.776;2024-03-06T10:43:39;11.80;99.90
19868;DHT22;10096;51.112;6.776;2024-03-06T10:46:12;11.70;99.90
19868;DHT22;10096;51.112;6.776;2024-03-06T10:48:52;11.80;99.90
19868;DHT22;10096;51.112;6.776;2024-03-06T10:51:21;11.80;99.90
19868;DHT22;10096;51.112;6.776;2024-03-06T10:53:49;11.80;99.90
19868;DHT22;10096;51.112;6.776;2024-03-06T10:56:21;11.80;99.90
19868;DHT22;10096;51.112;6.776;2024-03-06T10:58:52;11.70;99.90
19868;DHT22;10096;51.112;6.776;2024-03-06T11:01:25;11.70;99.90
19868;DHT22;10096;51.112;6.776;2024-03-06T11:03:52;11.70;99.90
19868;DHT22;10096;51.112;6.776;2024-03-06T11:06:20;11.40;99.90
19868;DHT22;10096;51.112;6.776;2024-03-06T11:08:50;11.40;99.90
19868;DHT22;10096;51.112;6.776;2024-03-06T11:11:24;11.70;99.90
19868;DHT22;10096;51.112;6.776;2024-03-06T11:13:56;11.50;99.90
19868;DHT22;10096;51.112;6.776;2024-03-06T11:16:29;11.50;99.90
19868;DHT22;10096;51.112;6.776;2024-03-06T11:19:06;11.60;99.90
19868;DHT22;10096;51.112;6.776;2024-03-06T11:21:56;11.60;99.90
19868;DHT22;10096;51.112;6.776;2024-03-06T11:24:23;11.30;99.90
19868;DHT22;10096;51.112;6.776;2024-03-06T11:26:55;11.30;99.90
19868;DHT22;10096;51.112;6.776;2024-03-06T11:32:59;11.20;99.90
19868;DHT22;10096;51.112;6.776;2024-03-06T11:35:30;11.10;99.90
19868;DHT22;10096;51.112;6.776;2024-03-06T11:38:01;11.10;99.90
19868;DHT22;10096;51.112;6.776;2024-03-06T11:40:43;11.20;99.90
19868;DHT22;10096;51.112;6.776;2024-03-06T11:43:23;11.10;99.90
19868;DHT22;10096;51.112;6.776;2024-03-06T11:46:07;10.90;99.90
19868;DHT22;10096;51.112;6.776;2024-03-06T11:48:36;11.00;99.90
19868;DHT22;10096;51.112;6.776;2024-03-06T11:51:04;11.10;99.90
19868;DHT22;10096;51.112;6.776;2024-03-06T11:53:33;11.00;99.90
19868;DHT22;10096;51.112;6.776;2024-03-06T11:56:00;11.00;99.90
19868;DHT22;10096;51.112;6.776;2024-03-06T11:58:29;10.90;99.90
19868;DHT22;10096;51.112;6.776;2024-03-06T12:00:56;11.10;99.90
19868;DHT22;10096;51.112;6.776;2024-03-06T12:03:23;11.20;99.90
19868;DHT22;10096;51.112;6.776;2024-03-06T12:05:52;11.20;99.90
19868;DHT22;10096;51.112;6.776;2024-03-06T12:08:20;11.20;99.90
19868;DHT22;10096;51.112;6.776;2024-03-06T12:10:56;11.20;99.90
19868;DHT22;10096;51.112;6.776;2024-03-06T12:13:33;11.20;99.90
19868;DHT22;10096;51.112;6.776;2024-03-06T12:16:10;11.20;99.90
19868;DHT22;10096;51.112;6.776;2024-03-06T12:18:46;11.30;99.90
19868;DHT22;10096;51.112;6.776;2024-03-06T12:21:32;11.50;99.90
19868;DHT22;10096;51.112;6.776;2024-03-06T12:24:03;11.50;99.90
19868;DHT22;10096;51.112;6.776;2024-03-06T12:27:00;11.70;99.90
19868;DHT22;10096;51.112;6.776;2024-03-06T12:29:30;11.80;99.90
19868;DHT22;10096;51.112;6.776;2024-03-06T12:32:00;11.90;99.90
19868;DHT22;10096;51.112;6.776;2024-03-06T12:34:27;12.20;99.90
19868;DHT22;10096;51.112;6.776;2024-03-06T12:36:57;12.10;99.90
19868;DHT22;10096;51.112;6.776;2024-03-06T12:39:34;12.10;99.90
19868;DHT22;10096;51.112;6.776;2024-03-06T12:42:01;12.10;99.90
19868;DHT22;10096;51.112;6.776;2024-03-06T12:44:28;12.00;99.90
19868;DHT22;10096;51.112;6.776;2024-03-06T12:46:57;12.00;99.90
19868;DHT22;10096;51.112;6.776;2024-03-06T12:49:24;12.20;99.90
19868;DHT22;10096;51.112;6.776;2024-03-06T12:51:58;12.20;99.90
19868;DHT22;10096;51.112;6.776;2024-03-06T12:54:27;12.10;99.90
19868;DHT22;10096;51.112;6.776;2024-03-06T12:56:54;12.00;99.90
19868;DHT22;10096;51.112;6.776;2024-03-06T12:59:28;12.30;99.90
19868;DHT22;10096;51.112;6.776;2024-03-06T13:01:55;12.00;99.90
19868;DHT22;10096;51.112;6.776;2024-03-06T13:04:49;12.10;99.90
19868;DHT22;10096;51.112;6.776;2024-03-06T13:07:23;12.10;99.90
19868;DHT22;10096;51.112;6.776;2024-03-06T13:09:54;12.20;99.90
19868;DHT22;10096;51.112;6.776;2024-03-06T13:12:21;12.20;99.90
19868;DHT22;10096;51.112;6.776;2024-03-06T13:14:48;12.40;99.90
19868;DHT22;10096;51.112;6.776;2024-03-06T13:17:15;12.50;99.90
19868;DHT22;10096;51.112;6.776;2024-03-06T13:19:41;12.30;99.90
19868;DHT22;10096;51.112;6.776;2024-03-06T13:22:08;12.30;99.90
19868;DHT22;10096;51.112;6.776;2024-03-06T13:24:37;12.30;99.90
19868;DHT22;10096;51.112;6.776;2024-03-06T13:27:13;12.50;99.90
19868;DHT22;10096;51.112;6.776;2024-03-06T13:29:40;12.50;99.90
19868;DHT22;10096;51.112;6.776;2024-03-06T13:32:08;12.10;99.90
19868;DHT22;10096;51.112;6.776;2024-03-06T13:34:37;12.20;99.90
19868;DHT22;10096;51.112;6.776;2024-03-06T13:37:13;12.50;99.90
19868;DHT22;10096;51.112;6.776;2024-03-06T13:39:45;12.20;99.90
19868;DHT22;10096;51.112;6.776;2024-03-06T13:42:16;12.20;99.90
19868;DHT22;10096;51.112;6.776;2024-03-06T13:44:43;12.30;99.90
19868;DHT22;10096;51.112;6.776;2024-03-06T13:47:17;12.40;99.90
19868;DHT22;10096;51.112;6.776;2024-03-06T13:49:46;12.20;98.40
19868;DHT22;10096;51.112;6.776;2024-03-06T13:52:14;12.50;99.90
19868;DHT22;10096;51.112;6.776;2024-03-06T13:54:56;12.50;92.50
19868;DHT22;10096;51.112;6.776;2024-03-06T13:57:38;12.50;85.60
19868;DHT22;10096;51.112;6.776;2024-03-06T14:00:09;12.50;93.60
19868;DHT22;10096;51.112;6.776;2024-03-06T14:02:45;12.50;92.10
19868;DHT22;10096;51.112;6.776;2024-03-06T14:05:17;12.60;80.90
19868;DHT22;10096;51.112;6.776;2024-03-06T14:07:58;12.70;82.20
19868;DHT22;10096;51.112;6.776;2024-03-06T14:10:26;12.30;82.80
19868;DHT22;10096;51.112;6.776;2024-03-06T14:12:56;12.70;86.80
19868;DHT22;10096;51.112;6.776;2024-03-06T14:15:32;12.60;91.20
19868;DHT22;10096;51.112;6.776;2024-03-06T14:18:00;12.60;86.70
19868;DHT22;10096;51.112;6.776;2024-03-06T14:20:43;12.50;85.60
19868;DHT22;10096;51.112;6.776;2024-03-06T14:23:32;12.30;77.10
19868;DHT22;10096;51.112;6.776;2024-03-06T14:26:25;12.70;79.30
19868;DHT22;10096;51.112;6.776;2024-03-06T14:28:56;12.70;80.20
19868;DHT22;10096;51.112;6.776;2024-03-06T14:31:27;12.80;81.20
19868;DHT22;10096;51.112;6.776;2024-03-06T14:34:07;12.90;72.10
19868;DHT22;10096;51.112;6.776;2024-03-06T14:36:44;12.80;93.10
19868;DHT22;10096;51.112;6.776;2024-03-06T14:39:12;12.80;84.10
19868;DHT22;10096;51.112;6.776;2024-03-06T14:41:44;13.00;82.90
19868;DHT22;10096;51.112;6.776;2024-03-06T14:44:30;13.20;71.80
19868;DHT22;10096;51.112;6.776;2024-03-06T14:46:57;12.90;94.40
19868;DHT22;10096;51.112;6.776;2024-03-06T14:49:24;13.00;68.40
19868;DHT22;10096;51.112;6.776;2024-03-06T14:51:52;13.20;65.20
19868;DHT22;10096;51.112;6.776;2024-03-06T14:54:21;13.10;67.40
19868;DHT22;10096;51.112;6.776;2024-03-06T14:56:50;13.20;62.80
19868;DHT22;10096;51.112;6.776;2024-03-06T14:59:32;13.60;62.80
19868;DHT22;10096;51.112;6.776;2024-03-06T15:02:01;13.70;62.70
19868;DHT22;10096;51.112;6.776;2024-03-06T15:04:33;13.50;57.90
19868;DHT22;10096;51.112;6.776;2024-03-06T15:07:06;13.70;54.40
19868;DHT22;10096;51.112;6.776;2024-03-06T15:09:59;13.80;51.40
19868;DHT22;10096;51.112;6.776;2024-03-06T15:12:37;13.70;51.20
19868;DHT22;10096;51.112;6.776;2024-03-06T15:15:05;13.80;47.40
19868;DHT22;10096;51.112;6.776;2024-03-06T15:17:35;13.90;68.90
19868;DHT22;10096;51.112;6.776;2024-03-06T15:20:05;14.30;43.30
19868;DHT22;10096;51.112;6.776;2024-03-06T15:22:37;14.30;43.30
19868;DHT22;10096;51.112;6.776;2024-03-06T15:25:10;14.20;36.10
19868;DHT22;10096;51.112;6.776;2024-03-06T15:27:45;14.30;40.00
19868;DHT22;10096;51.112;6.776;2024-03-06T15:30:14;14.30;40.20
19868;DHT22;10096;51.112;6.776;2024-03-06T15:33:00;14.30;45.80
19868;DHT22;10096;51.112;6.776;2024-03-06T15:35:31;14.20;46.70
19868;DHT22;10096;51.112;6.776;2024-03-06T15:38:06;14.30;41.70
19868;DHT22;10096;51.112;6.776;2024-03-06T15:40:42;14.20;40.60
19868;DHT22;10096;51.112;6.776;2024-03-06T15:43:12;14.10;50.50
19868;DHT22;10096;51.112;6.776;2024-03-06T15:46:11;14.00;52.40
19868;DHT22;10096;51.112;6.776;2024-03-06T15:49:22;14.10;54.60
19868;DHT22;10096;51.112;6.776;2024-03-06T15:52:06;13.90;66.10
19868;DHT22;10096;51.112;6.776;2024-03-06T15:54:34;13.70;72.70
19868;DHT22;10096;51.112;6.776;2024-03-06T15:57:13;13.50;69.30
19868;DHT22;10096;51.112;6.776;2024-03-06T15:59:51;13.70;69.30
19868;DHT22;10096;51.112;6.776;2024-03-06T16:02:20;13.50;78.50
19868;DHT22;10096;51.112;6.776;2024-03-06T16:07:58;13.10;72.20
19868;DHT22;10096;51.112;6.776;2024-03-06T16:11:15;13.00;73.00
19868;DHT22;10096;51.112;6.776;2024-03-06T16:14:03;13.00;72.90
19868;DHT22;10096;51.112;6.776;2024-03-06T16:16:30;12.90;78.20
19868;DHT22;10096;51.112;6.776;2024-03-06T16:19:11;12.70;79.00
19868;DHT22;10096;51.112;6.776;2024-03-06T16:21:43;12.70;79.70
19868;DHT22;10096;51.112;6.776;2024-03-06T16:24:12;12.60;89.20
19868;DHT22;10096;51.112;6.776;2024-03-06T16:26:51;12.90;91.50
19868;DHT22;10096;51.112;6.776;2024-03-06T16:29:24;12.70;89.00
19868;DHT22;10096;51.112;6.776;2024-03-06T16:31:51;12.60;89.20
19868;DHT22;10096;51.112;6.776;2024-03-06T16:34:24;12.60;89.20
19868;DHT22;10096;51.112;6.776;2024-03-06T16:36:56;12.60;90.20
19868;DHT22;10096;51.112;6.776;2024-03-06T16:39:40;12.60;93.90
19868;DHT22;10096;51.112;6.776;2024-03-06T16:42:12;12.30;94.20
19868;DHT22;10096;51.112;6.776;2024-03-06T16:44:40;12.70;91.30